sensor_id;sensor_type;location;lat;lon;timestamp;P1;durP1;ratioP1;P2;durP2;ratioP2
72895;SDS011;61036;53.224;6.554;2022-10-31T00:00:23;19.20;;;12.73;;
72895;SDS011;61036;53.224;6.554;2022-10-31T00:02:50;23.60;;;13.37;;
72895;SDS011;61036;53.224;6.554;2022-10-31T00:05:16;17.50;;;12.10;;
72895;SDS011;61036;53.224;6.554;2022-10-31T00:07:42;20.00;;;12.27;;
72895;SDS011;61036;53.224;6.554;2022-10-31T00:10:08;19.13;;;12.97;;
72895;SDS011;61036;53.224;6.554;2022-10-31T00:12:36;21.80;;;13.20;;
72895;SDS011;61036;53.224;6.554;2022-10-31T00:15:02;22.23;;;13.67;;
72895;SDS011;61036;53.224;6.554;2022-10-31T00:17:28;19.07;;;13.00;;
72895;SDS011;61036;53.224;6.554;2022-10-31T00:19:54;22.00;;;12.97;;
72895;SDS011;61036;53.224;6.554;2022-10-31T00:22:20;19.23;;;14.13;;
72895;SDS011;61036;53.224;6.554;2022-10-31T00:24:46;22.47;;;15.83;;
72895;SDS011;61036;53.224;6.554;2022-10-31T00:27:12;19.37;;;14.33;;
72895;SDS011;61036;53.224;6.554;2022-10-31T00:29:38;20.93;;;14.90;;
72895;SDS011;61036;53.224;6.554;2022-10-31T00:32:03;24.17;;;16.77;;
72895;SDS011;61036;53.224;6.554;2022-10-31T00:34:33;19.83;;;14.90;;
72895;SDS011;61036;53.224;6.554;2022-10-31T00:36:59;26.60;;;18.40;;
72895;SDS011;61036;53.224;6.554;2022-10-31T00:39:25;23.50;;;16.23;;
72895;SDS011;61036;53.224;6.554;2022-10-31T00:41:52;24.77;;;15.27;;
72895;SDS011;61036;53.224;6.554;2022-10-31T00:44:17;23.03;;;16.17;;
72895;SDS011;61036;53.224;6.554;2022-10-31T00:46:45;22.63;;;16.43;;
72895;SDS011;61036;53.224;6.554;2022-10-31T00:49:10;27.20;;;17.77;;
72895;SDS011;61036;53.224;6.554;2022-10-31T00:51:37;25.37;;;17.07;;
72895;SDS011;61036;53.224;6.554;2022-10-31T00:54:03;23.60;;;17.50;;
72895;SDS011;61036;53.224;6.554;2022-10-31T00:56:29;26.13;;;17.10;;
72895;SDS011;61036;53.224;6.554;2022-10-31T00:58:57;22.37;;;15.90;;
72895;SDS011;61036;53.224;6.554;2022-10-31T01:01:25;22.67;;;16.33;;
72895;SDS011;61036;53.224;6.554;2022-10-31T01:03:50;23.93;;;17.20;;
72895;SDS011;61036;53.224;6.554;2022-10-31T01:06:16;26.30;;;18.30;;
72895;SDS011;61036;53.224;6.554;2022-10-31T01:08:42;24.90;;;16.73;;
72895;SDS011;61036;53.224;6.554;2022-10-31T01:13:40;24.83;;;18.20;;
72895;SDS011;61036;53.224;6.554;2022-10-31T01:16:07;24.33;;;16.60;;
72895;SDS011;61036;53.224;6.554;2022-10-31T01:18:35;25.20;;;15.73;;
72895;SDS011;61036;53.224;6.554;2022-10-31T01:23:32;22.00;;;15.63;;
72895;SDS011;61036;53.224;6.554;2022-10-31T01:26:02;24.73;;;16.07;;
72895;SDS011;61036;53.224;6.554;2022-10-31T01:28:33;23.00;;;16.43;;
72895;SDS011;61036;53.224;6.554;2022-10-31T01:31:07;23.77;;;16.17;;
72895;SDS011;61036;53.224;6.554;2022-10-31T01:33:34;20.70;;;15.57;;
72895;SDS011;61036;53.224;6.554;2022-10-31T01:36:00;21.17;;;15.07;;
72895;SDS011;61036;53.224;6.554;2022-10-31T01:38:26;20.67;;;15.03;;
72895;SDS011;61036;53.224;6.554;2022-10-31T01:40:52;21.43;;;14.93;;
72895;SDS011;61036;53.224;6.554;2022-10-31T01:43:19;19.33;;;13.93;;
72895;SDS011;61036;53.224;6.554;2022-10-31T01:45:46;23.77;;;15.90;;
72895;SDS011;61036;53.224;6.554;2022-10-31T01:48:21;20.87;;;15.50;;
72895;SDS011;61036;53.224;6.554;2022-10-31T01:50:51;20.10;;;13.33;;
72895;SDS011;61036;53.224;6.554;2022-10-31T01:53:21;20.27;;;14.40;;
72895;SDS011;61036;53.224;6.554;2022-10-31T01:55:49;20.33;;;15.03;;
72895;SDS011;61036;53.224;6.554;2022-10-31T01:58:16;22.63;;;15.50;;
72895;SDS011;61036;53.224;6.554;2022-10-31T02:00:46;20.10;;;13.60;;
72895;SDS011;61036;53.224;6.554;2022-10-31T02:03:17;18.37;;;13.60;;
72895;SDS011;61036;53.224;6.554;2022-10-31T02:05:45;22.03;;;14.27;;
72895;SDS011;61036;53.224;6.554;2022-10-31T02:10:57;19.57;;;13.70;;
72895;SDS011;61036;53.224;6.554;2022-10-31T02:13:24;20.10;;;14.70;;
72895;SDS011;61036;53.224;6.554;2022-10-31T02:15:55;19.47;;;13.87;;
72895;SDS011;61036;53.224;6.554;2022-10-31T02:18:22;19.33;;;13.90;;
72895;SDS011;61036;53.224;6.554;2022-10-31T02:33:52;20.27;;;14.10;;
72895;SDS011;61036;53.224;6.554;2022-10-31T02:36:25;24.30;;;15.53;;
72895;SDS011;61036;53.224;6.554;2022-10-31T02:41:37;22.63;;;14.57;;
72895;SDS011;61036;53.224;6.554;2022-10-31T02:46:51;21.60;;;14.30;;
72895;SDS011;61036;53.224;6.554;2022-10-31T02:51:55;23.23;;;15.00;;
72895;SDS011;61036;53.224;6.554;2022-10-31T02:54:23;22.90;;;15.50;;
72895;SDS011;61036;53.224;6.554;2022-10-31T02:56:54;27.03;;;16.10;;
72895;SDS011;61036;53.224;6.554;2022-10-31T02:59:27;22.97;;;15.40;;
72895;SDS011;61036;53.224;6.554;2022-10-31T03:04:32;19.20;;;13.80;;
72895;SDS011;61036;53.224;6.554;2022-10-31T03:10:12;22.87;;;15.60;;
72895;SDS011;61036;53.224;6.554;2022-10-31T03:12:53;21.83;;;15.00;;
72895;SDS011;61036;53.224;6.554;2022-10-31T03:15:23;21.33;;;15.27;;
72895;SDS011;61036;53.224;6.554;2022-10-31T03:17:53;21.67;;;15.47;;
72895;SDS011;61036;53.224;6.554;2022-10-31T03:20:51;21.60;;;15.13;;
72895;SDS011;61036;53.224;6.554;2022-10-31T03:23:21;22.40;;;15.07;;
72895;SDS011;61036;53.224;6.554;2022-10-31T03:25:50;20.57;;;14.60;;
72895;SDS011;61036;53.224;6.554;2022-10-31T03:28:25;23.90;;;15.50;;
72895;SDS011;61036;53.224;6.554;2022-10-31T03:30:55;18.60;;;14.27;;
72895;SDS011;61036;53.224;6.554;2022-10-31T03:33:25;20.97;;;14.77;;
72895;SDS011;61036;53.224;6.554;2022-10-31T03:35:55;20.27;;;15.33;;
72895;SDS011;61036;53.224;6.554;2022-10-31T03:38:23;21.47;;;14.20;;
72895;SDS011;61036;53.224;6.554;2022-10-31T03:40:51;20.50;;;15.03;;
72895;SDS011;61036;53.224;6.554;2022-10-31T03:43:23;23.80;;;14.73;;
72895;SDS011;61036;53.224;6.554;2022-10-31T03:45:54;24.27;;;16.13;;
72895;SDS011;61036;53.224;6.554;2022-10-31T03:48:20;24.40;;;14.93;;
72895;SDS011;61036;53.224;6.554;2022-10-31T03:53:34;22.63;;;15.13;;
72895;SDS011;61036;53.224;6.554;2022-10-31T03:56:27;19.67;;;13.73;;
72895;SDS011;61036;53.224;6.554;2022-10-31T03:58:59;21.07;;;15.10;;
72895;SDS011;61036;53.224;6.554;2022-10-31T04:01:29;19.03;;;14.10;;
72895;SDS011;61036;53.224;6.554;2022-10-31T04:03:57;21.47;;;14.03;;
72895;SDS011;61036;53.224;6.554;2022-10-31T04:06:24;20.60;;;14.53;;
72895;SDS011;61036;53.224;6.554;2022-10-31T04:08:55;20.33;;;13.33;;
72895;SDS011;61036;53.224;6.554;2022-10-31T04:11:24;18.73;;;13.97;;
72895;SDS011;61036;53.224;6.554;2022-10-31T04:14:17;18.50;;;14.23;;
72895;SDS011;61036;53.224;6.554;2022-10-31T04:16:44;19.10;;;13.57;;
72895;SDS011;61036;53.224;6.554;2022-10-31T04:19:11;18.40;;;13.67;;
72895;SDS011;61036;53.224;6.554;2022-10-31T04:21:38;18.43;;;13.67;;
72895;SDS011;61036;53.224;6.554;2022-10-31T04:24:04;20.83;;;15.03;;
72895;SDS011;61036;53.224;6.554;2022-10-31T04:26:30;18.87;;;14.10;;
72895;SDS011;61036;53.224;6.554;2022-10-31T04:28:56;22.50;;;15.10;;
72895;SDS011;61036;53.224;6.554;2022-10-31T04:31:25;18.37;;;14.43;;
72895;SDS011;61036;53.224;6.554;2022-10-31T04:33:51;21.80;;;14.70;;
72895;SDS011;61036;53.224;6.554;2022-10-31T04:36:18;21.37;;;14.67;;
72895;SDS011;61036;53.224;6.554;2022-10-31T04:38:44;20.17;;;14.43;;
72895;SDS011;61036;53.224;6.554;2022-10-31T04:41:25;18.87;;;13.27;;
72895;SDS011;61036;53.224;6.554;2022-10-31T04:43:57;17.50;;;13.23;;
72895;SDS011;61036;53.224;6.554;2022-10-31T04:46:22;17.93;;;12.83;;
72895;SDS011;61036;53.224;6.554;2022-10-31T04:48:51;19.30;;;13.70;;
72895;SDS011;61036;53.224;6.554;2022-10-31T04:51:17;20.87;;;14.20;;
72895;SDS011;61036;53.224;6.554;2022-10-31T04:53:43;23.93;;;14.53;;
72895;SDS011;61036;53.224;6.554;2022-10-31T04:56:27;19.80;;;13.23;;
72895;SDS011;61036;53.224;6.554;2022-10-31T04:59:01;20.43;;;14.40;;
72895;SDS011;61036;53.224;6.554;2022-10-31T05:01:38;23.97;;;15.17;;
72895;SDS011;61036;53.224;6.554;2022-10-31T05:04:04;19.70;;;14.60;;
72895;SDS011;61036;53.224;6.554;2022-10-31T05:06:31;21.07;;;14.33;;
72895;SDS011;61036;53.224;6.554;2022-10-31T05:08:58;19.73;;;14.80;;
72895;SDS011;61036;53.224;6.554;2022-10-31T05:11:24;21.50;;;15.30;;
72895;SDS011;61036;53.224;6.554;2022-10-31T05:13:49;18.77;;;14.33;;
72895;SDS011;61036;53.224;6.554;2022-10-31T05:16:50;19.07;;;14.13;;
72895;SDS011;61036;53.224;6.554;2022-10-31T05:19:35;18.43;;;14.63;;
72895;SDS011;61036;53.224;6.554;2022-10-31T05:22:27;22.30;;;14.17;;
72895;SDS011;61036;53.224;6.554;2022-10-31T05:24:53;20.53;;;14.40;;
72895;SDS011;61036;53.224;6.554;2022-10-31T05:27:18;21.77;;;15.93;;
72895;SDS011;61036;53.224;6.554;2022-10-31T05:29:44;20.43;;;16.07;;
72895;SDS011;61036;53.224;6.554;2022-10-31T05:32:13;19.30;;;15.33;;
72895;SDS011;61036;53.224;6.554;2022-10-31T05:34:59;19.57;;;14.03;;
72895;SDS011;61036;53.224;6.554;2022-10-31T05:37:54;21.90;;;16.73;;
72895;SDS011;61036;53.224;6.554;2022-10-31T05:40:20;22.23;;;14.97;;
72895;SDS011;61036;53.224;6.554;2022-10-31T05:42:47;18.73;;;15.30;;
72895;SDS011;61036;53.224;6.554;2022-10-31T05:45:16;19.63;;;14.77;;
72895;SDS011;61036;53.224;6.554;2022-10-31T05:47:55;22.60;;;15.90;;
72895;SDS011;61036;53.224;6.554;2022-10-31T05:50:41;20.23;;;14.83;;
72895;SDS011;61036;53.224;6.554;2022-10-31T05:53:09;20.47;;;15.90;;
72895;SDS011;61036;53.224;6.554;2022-10-31T05:55:36;17.70;;;14.23;;
72895;SDS011;61036;53.224;6.554;2022-10-31T05:58:11;19.00;;;14.73;;
72895;SDS011;61036;53.224;6.554;2022-10-31T06:00:39;18.67;;;14.73;;
72895;SDS011;61036;53.224;6.554;2022-10-31T06:03:08;18.97;;;14.70;;
72895;SDS011;61036;53.224;6.554;2022-10-31T06:05:43;21.87;;;15.33;;
72895;SDS011;61036;53.224;6.554;2022-10-31T06:08:10;20.40;;;15.67;;
72895;SDS011;61036;53.224;6.554;2022-10-31T06:10:38;20.30;;;15.63;;
72895;SDS011;61036;53.224;6.554;2022-10-31T06:13:05;21.63;;;15.43;;
72895;SDS011;61036;53.224;6.554;2022-10-31T06:15:51;20.40;;;14.93;;
72895;SDS011;61036;53.224;6.554;2022-10-31T06:18:20;23.70;;;15.47;;
72895;SDS011;61036;53.224;6.554;2022-10-31T06:20:53;20.67;;;15.47;;
72895;SDS011;61036;53.224;6.554;2022-10-31T06:23:18;17.97;;;14.33;;
72895;SDS011;61036;53.224;6.554;2022-10-31T06:25:51;21.43;;;16.57;;
72895;SDS011;61036;53.224;6.554;2022-10-31T06:28:17;21.33;;;16.03;;
72895;SDS011;61036;53.224;6.554;2022-10-31T06:30:49;22.17;;;15.43;;
72895;SDS011;61036;53.224;6.554;2022-10-31T06:33:19;18.67;;;14.20;;
72895;SDS011;61036;53.224;6.554;2022-10-31T06:35:56;22.57;;;15.20;;
72895;SDS011;61036;53.224;6.554;2022-10-31T06:38:24;22.27;;;16.97;;
72895;SDS011;61036;53.224;6.554;2022-10-31T06:40:51;21.00;;;15.67;;
72895;SDS011;61036;53.224;6.554;2022-10-31T06:43:21;19.97;;;15.30;;
72895;SDS011;61036;53.224;6.554;2022-10-31T06:45:49;21.00;;;16.17;;
72895;SDS011;61036;53.224;6.554;2022-10-31T06:48:20;20.10;;;15.87;;
72895;SDS011;61036;53.224;6.554;2022-10-31T06:51:09;20.80;;;13.80;;
72895;SDS011;61036;53.224;6.554;2022-10-31T06:53:36;18.90;;;14.03;;
72895;SDS011;61036;53.224;6.554;2022-10-31T06:56:03;16.67;;;13.40;;
72895;SDS011;61036;53.224;6.554;2022-10-31T06:58:35;19.90;;;14.83;;
72895;SDS011;61036;53.224;6.554;2022-10-31T07:01:04;21.43;;;15.37;;
72895;SDS011;61036;53.224;6.554;2022-10-31T07:03:31;16.07;;;13.37;;
72895;SDS011;61036;53.224;6.554;2022-10-31T07:05:58;18.83;;;14.73;;
72895;SDS011;61036;53.224;6.554;2022-10-31T07:08:23;20.50;;;13.93;;
72895;SDS011;61036;53.224;6.554;2022-10-31T07:10:51;19.97;;;14.10;;
72895;SDS011;61036;53.224;6.554;2022-10-31T07:13:21;17.60;;;13.57;;
72895;SDS011;61036;53.224;6.554;2022-10-31T07:15:54;24.10;;;15.10;;
72895;SDS011;61036;53.224;6.554;2022-10-31T07:18:24;19.37;;;14.07;;
72895;SDS011;61036;53.224;6.554;2022-10-31T07:20:51;17.83;;;13.57;;
72895;SDS011;61036;53.224;6.554;2022-10-31T07:23:19;20.30;;;14.30;;
72895;SDS011;61036;53.224;6.554;2022-10-31T07:25:55;16.93;;;13.70;;
72895;SDS011;61036;53.224;6.554;2022-10-31T07:28:24;20.43;;;14.70;;
72895;SDS011;61036;53.224;6.554;2022-10-31T07:30:52;19.20;;;14.57;;
72895;SDS011;61036;53.224;6.554;2022-10-31T07:33:19;20.23;;;14.13;;
72895;SDS011;61036;53.224;6.554;2022-10-31T07:36:09;21.43;;;15.20;;
72895;SDS011;61036;53.224;6.554;2022-10-31T07:38:39;21.27;;;16.23;;
72895;SDS011;61036;53.224;6.554;2022-10-31T07:41:06;22.73;;;15.10;;
72895;SDS011;61036;53.224;6.554;2022-10-31T07:43:37;20.33;;;14.83;;
72895;SDS011;61036;53.224;6.554;2022-10-31T07:46:07;23.10;;;15.10;;
72895;SDS011;61036;53.224;6.554;2022-10-31T07:49:02;19.57;;;14.93;;
72895;SDS011;61036;53.224;6.554;2022-10-31T07:51:56;21.80;;;15.80;;
72895;SDS011;61036;53.224;6.554;2022-10-31T07:54:48;20.00;;;15.43;;
72895;SDS011;61036;53.224;6.554;2022-10-31T07:57:21;20.53;;;14.93;;
72895;SDS011;61036;53.224;6.554;2022-10-31T07:59:49;21.57;;;15.30;;
72895;SDS011;61036;53.224;6.554;2022-10-31T08:02:17;19.37;;;15.00;;
72895;SDS011;61036;53.224;6.554;2022-10-31T08:04:46;22.77;;;15.43;;
72895;SDS011;61036;53.224;6.554;2022-10-31T08:07:34;21.77;;;15.63;;
72895;SDS011;61036;53.224;6.554;2022-10-31T08:10:04;22.67;;;17.03;;
72895;SDS011;61036;53.224;6.554;2022-10-31T08:12:30;20.87;;;16.60;;
72895;SDS011;61036;53.224;6.554;2022-10-31T08:14:57;21.87;;;15.00;;
72895;SDS011;61036;53.224;6.554;2022-10-31T08:17:24;17.40;;;13.73;;
72895;SDS011;61036;53.224;6.554;2022-10-31T08:19:54;19.53;;;14.73;;
72895;SDS011;61036;53.224;6.554;2022-10-31T08:22:24;17.43;;;13.40;;
72895;SDS011;61036;53.224;6.554;2022-10-31T08:24:50;18.93;;;13.70;;
72895;SDS011;61036;53.224;6.554;2022-10-31T08:27:16;18.57;;;13.80;;
72895;SDS011;61036;53.224;6.554;2022-10-31T08:29:42;17.57;;;12.77;;
72895;SDS011;61036;53.224;6.554;2022-10-31T08:32:07;16.77;;;12.37;;
72895;SDS011;61036;53.224;6.554;2022-10-31T08:34:53;17.50;;;13.93;;
72895;SDS011;61036;53.224;6.554;2022-10-31T08:37:37;19.63;;;13.97;;
72895;SDS011;61036;53.224;6.554;2022-10-31T08:40:05;17.67;;;13.60;;
72895;SDS011;61036;53.224;6.554;2022-10-31T08:42:33;16.33;;;12.90;;
72895;SDS011;61036;53.224;6.554;2022-10-31T08:44:59;18.93;;;12.83;;
72895;SDS011;61036;53.224;6.554;2022-10-31T08:47:25;20.27;;;14.17;;
72895;SDS011;61036;53.224;6.554;2022-10-31T08:49:51;19.53;;;14.40;;
72895;SDS011;61036;53.224;6.554;2022-10-31T08:52:17;16.03;;;12.07;;
72895;SDS011;61036;53.224;6.554;2022-10-31T08:54:45;17.43;;;13.60;;
72895;SDS011;61036;53.224;6.554;2022-10-31T08:57:29;16.37;;;12.33;;
72895;SDS011;61036;53.224;6.554;2022-10-31T08:59:56;14.90;;;11.93;;
72895;SDS011;61036;53.224;6.554;2022-10-31T09:02:54;17.50;;;12.07;;
72895;SDS011;61036;53.224;6.554;2022-10-31T09:05:23;17.50;;;12.70;;
72895;SDS011;61036;53.224;6.554;2022-10-31T09:07:49;13.60;;;10.43;;
72895;SDS011;61036;53.224;6.554;2022-10-31T09:10:16;13.73;;;10.57;;
72895;SDS011;61036;53.224;6.554;2022-10-31T09:12:44;14.73;;;10.77;;
72895;SDS011;61036;53.224;6.554;2022-10-31T09:15:39;14.90;;;10.60;;
72895;SDS011;61036;53.224;6.554;2022-10-31T09:18:21;17.43;;;10.93;;
72895;SDS011;61036;53.224;6.554;2022-10-31T09:20:57;16.00;;;10.83;;
72895;SDS011;61036;53.224;6.554;2022-10-31T09:23:25;15.17;;;11.03;;
72895;SDS011;61036;53.224;6.554;2022-10-31T09:25:52;13.67;;;10.20;;
72895;SDS011;61036;53.224;6.554;2022-10-31T09:28:33;16.03;;;11.30;;
72895;SDS011;61036;53.224;6.554;2022-10-31T09:31:04;14.07;;;10.17;;
72895;SDS011;61036;53.224;6.554;2022-10-31T09:33:59;12.87;;;10.07;;
72895;SDS011;61036;53.224;6.554;2022-10-31T09:36:34;14.83;;;9.60;;
72895;SDS011;61036;53.224;6.554;2022-10-31T09:39:01;15.67;;;9.00;;
72895;SDS011;61036;53.224;6.554;2022-10-31T09:44:08;16.03;;;9.33;;
72895;SDS011;61036;53.224;6.554;2022-10-31T09:47:21;14.03;;;9.10;;
72895;SDS011;61036;53.224;6.554;2022-10-31T09:50:29;12.00;;;9.20;;
72895;SDS011;61036;53.224;6.554;2022-10-31T09:53:26;11.63;;;8.77;;
72895;SDS011;61036;53.224;6.554;2022-10-31T09:55:58;13.10;;;8.73;;
72895;SDS011;61036;53.224;6.554;2022-10-31T09:58:28;12.27;;;8.57;;
72895;SDS011;61036;53.224;6.554;2022-10-31T10:00:56;11.90;;;8.67;;
72895;SDS011;61036;53.224;6.554;2022-10-31T10:03:39;12.60;;;8.90;;
72895;SDS011;61036;53.224;6.554;2022-10-31T10:06:32;11.70;;;8.93;;
72895;SDS011;61036;53.224;6.554;2022-10-31T10:09:29;12.57;;;8.87;;
72895;SDS011;61036;53.224;6.554;2022-10-31T10:12:16;13.77;;;9.87;;
72895;SDS011;61036;53.224;6.554;2022-10-31T10:18:07;13.20;;;10.50;;
72895;SDS011;61036;53.224;6.554;2022-10-31T10:21:03;13.73;;;9.97;;
72895;SDS011;61036;53.224;6.554;2022-10-31T10:29:50;14.97;;;10.23;;
72895;SDS011;61036;53.224;6.554;2022-10-31T10:32:31;14.27;;;9.83;;
72895;SDS011;61036;53.224;6.554;2022-10-31T10:37:46;17.20;;;9.73;;
72895;SDS011;61036;53.224;6.554;2022-10-31T10:40:17;13.27;;;9.17;;
72895;SDS011;61036;53.224;6.554;2022-10-31T10:43:36;13.13;;;9.70;;
72895;SDS011;61036;53.224;6.554;2022-10-31T10:46:05;13.27;;;10.40;;
72895;SDS011;61036;53.224;6.554;2022-10-31T10:51:49;15.83;;;10.80;;
72895;SDS011;61036;53.224;6.554;2022-10-31T11:00:10;15.93;;;11.90;;
72895;SDS011;61036;53.224;6.554;2022-10-31T11:02:49;16.47;;;12.40;;
72895;SDS011;61036;53.224;6.554;2022-10-31T11:05:22;17.80;;;12.57;;
72895;SDS011;61036;53.224;6.554;2022-10-31T11:08:02;16.97;;;13.10;;
72895;SDS011;61036;53.224;6.554;2022-10-31T11:10:29;17.53;;;12.83;;
72895;SDS011;61036;53.224;6.554;2022-10-31T11:13:00;16.90;;;12.67;;
72895;SDS011;61036;53.224;6.554;2022-10-31T11:15:26;16.37;;;12.33;;
72895;SDS011;61036;53.224;6.554;2022-10-31T11:17:54;16.90;;;12.77;;
72895;SDS011;61036;53.224;6.554;2022-10-31T11:20:29;15.23;;;10.73;;
72895;SDS011;61036;53.224;6.554;2022-10-31T11:23:01;14.97;;;10.80;;
72895;SDS011;61036;53.224;6.554;2022-10-31T11:25:47;13.43;;;10.47;;
72895;SDS011;61036;53.224;6.554;2022-10-31T11:28:15;14.50;;;11.10;;
72895;SDS011;61036;53.224;6.554;2022-10-31T11:30:48;13.87;;;10.10;;
72895;SDS011;61036;53.224;6.554;2022-10-31T11:33:17;15.27;;;10.43;;
72895;SDS011;61036;53.224;6.554;2022-10-31T11:35:46;15.63;;;10.77;;
72895;SDS011;61036;53.224;6.554;2022-10-31T11:38:17;13.10;;;10.03;;
72895;SDS011;61036;53.224;6.554;2022-10-31T11:43:21;16.87;;;10.57;;
72895;SDS011;61036;53.224;6.554;2022-10-31T11:45:49;15.17;;;8.73;;
72895;SDS011;61036;53.224;6.554;2022-10-31T11:48:16;14.10;;;9.13;;
72895;SDS011;61036;53.224;6.554;2022-10-31T11:50:50;14.37;;;9.10;;
72895;SDS011;61036;53.224;6.554;2022-10-31T11:53:20;12.13;;;8.20;;
72895;SDS011;61036;53.224;6.554;2022-10-31T11:56:12;13.67;;;8.37;;
72895;SDS011;61036;53.224;6.554;2022-10-31T11:58:42;10.80;;;6.83;;
72895;SDS011;61036;53.224;6.554;2022-10-31T12:01:27;10.43;;;6.33;;
72895;SDS011;61036;53.224;6.554;2022-10-31T12:04:00;8.80;;;6.03;;
72895;SDS011;61036;53.224;6.554;2022-10-31T12:06:36;11.80;;;6.37;;
72895;SDS011;61036;53.224;6.554;2022-10-31T12:09:15;11.77;;;6.47;;
72895;SDS011;61036;53.224;6.554;2022-10-31T12:11:56;10.23;;;6.77;;
72895;SDS011;61036;53.224;6.554;2022-10-31T12:22:47;11.60;;;6.30;;
72895;SDS011;61036;53.224;6.554;2022-10-31T12:25:19;12.63;;;6.63;;
72895;SDS011;61036;53.224;6.554;2022-10-31T12:31:13;12.30;;;6.70;;
72895;SDS011;61036;53.224;6.554;2022-10-31T12:34:32;12.93;;;7.37;;
72895;SDS011;61036;53.224;6.554;2022-10-31T12:42:35;11.53;;;6.70;;
72895;SDS011;61036;53.224;6.554;2022-10-31T12:57:12;12.90;;;6.17;;
72895;SDS011;61036;53.224;6.554;2022-10-31T13:02:26;13.00;;;5.57;;
72895;SDS011;61036;53.224;6.554;2022-10-31T13:08:08;11.43;;;5.27;;
72895;SDS011;61036;53.224;6.554;2022-10-31T13:10:48;11.90;;;5.33;;
72895;SDS011;61036;53.224;6.554;2022-10-31T13:13:19;12.27;;;5.70;;
72895;SDS011;61036;53.224;6.554;2022-10-31T13:15:53;13.10;;;5.47;;
72895;SDS011;61036;53.224;6.554;2022-10-31T13:18:30;10.93;;;5.17;;
72895;SDS011;61036;53.224;6.554;2022-10-31T13:21:02;16.87;;;5.43;;
72895;SDS011;61036;53.224;6.554;2022-10-31T13:23:35;11.47;;;4.37;;
72895;SDS011;61036;53.224;6.554;2022-10-31T13:26:06;10.13;;;4.30;;
72895;SDS011;61036;53.224;6.554;2022-10-31T13:28:46;9.07;;;3.70;;
72895;SDS011;61036;53.224;6.554;2022-10-31T13:31:38;9.77;;;4.10;;
72895;SDS011;61036;53.224;6.554;2022-10-31T13:34:22;7.73;;;3.77;;
72895;SDS011;61036;53.224;6.554;2022-10-31T13:37:04;11.40;;;4.37;;
72895;SDS011;61036;53.224;6.554;2022-10-31T13:45:23;9.63;;;4.53;;
72895;SDS011;61036;53.224;6.554;2022-10-31T13:47:55;10.33;;;4.30;;
72895;SDS011;61036;53.224;6.554;2022-10-31T13:50:23;11.40;;;4.00;;
72895;SDS011;61036;53.224;6.554;2022-10-31T13:55:45;8.93;;;3.70;;
72895;SDS011;61036;53.224;6.554;2022-10-31T13:58:26;10.10;;;4.60;;
72895;SDS011;61036;53.224;6.554;2022-10-31T14:03:39;9.10;;;4.43;;
72895;SDS011;61036;53.224;6.554;2022-10-31T14:06:07;10.70;;;4.20;;
72895;SDS011;61036;53.224;6.554;2022-10-31T14:08:35;9.77;;;3.90;;
72895;SDS011;61036;53.224;6.554;2022-10-31T14:11:05;9.07;;;3.90;;
72895;SDS011;61036;53.224;6.554;2022-10-31T14:13:37;11.17;;;4.60;;
72895;SDS011;61036;53.224;6.554;2022-10-31T14:16:22;10.90;;;4.60;;
72895;SDS011;61036;53.224;6.554;2022-10-31T14:21:48;12.57;;;5.27;;
72895;SDS011;61036;53.224;6.554;2022-10-31T14:29:28;12.63;;;4.70;;
72895;SDS011;61036;53.224;6.554;2022-10-31T14:32:31;14.00;;;6.70;;
72895;SDS011;61036;53.224;6.554;2022-10-31T14:34:57;17.73;;;8.50;;
72895;SDS011;61036;53.224;6.554;2022-10-31T14:40:33;13.47;;;6.03;;
72895;SDS011;61036;53.224;6.554;2022-10-31T14:43:21;11.53;;;6.00;;
72895;SDS011;61036;53.224;6.554;2022-10-31T14:49:01;9.27;;;5.70;;
72895;SDS011;61036;53.224;6.554;2022-10-31T14:51:43;11.37;;;5.80;;
72895;SDS011;61036;53.224;6.554;2022-10-31T14:54:17;11.33;;;5.80;;
72895;SDS011;61036;53.224;6.554;2022-10-31T14:57:12;13.17;;;5.60;;
72895;SDS011;61036;53.224;6.554;2022-10-31T14:59:45;12.30;;;5.07;;
72895;SDS011;61036;53.224;6.554;2022-10-31T15:02:25;13.63;;;5.83;;
72895;SDS011;61036;53.224;6.554;2022-10-31T15:04:58;11.57;;;5.30;;
72895;SDS011;61036;53.224;6.554;2022-10-31T15:07:24;12.53;;;5.63;;
72895;SDS011;61036;53.224;6.554;2022-10-31T15:09:58;11.33;;;5.33;;
72895;SDS011;61036;53.224;6.554;2022-10-31T15:12:33;12.40;;;5.50;;
72895;SDS011;61036;53.224;6.554;2022-10-31T15:17:58;11.87;;;4.80;;
72895;SDS011;61036;53.224;6.554;2022-10-31T15:20:26;10.50;;;5.40;;
72895;SDS011;61036;53.224;6.554;2022-10-31T15:22:55;10.97;;;5.47;;
72895;SDS011;61036;53.224;6.554;2022-10-31T15:25:23;11.93;;;5.43;;
72895;SDS011;61036;53.224;6.554;2022-10-31T15:27:51;10.10;;;6.37;;
72895;SDS011;61036;53.224;6.554;2022-10-31T15:30:27;11.90;;;6.30;;
72895;SDS011;61036;53.224;6.554;2022-10-31T15:32:56;13.77;;;7.13;;
72895;SDS011;61036;53.224;6.554;2022-10-31T15:35:29;11.17;;;6.53;;
72895;SDS011;61036;53.224;6.554;2022-10-31T15:37:56;17.93;;;7.80;;
72895;SDS011;61036;53.224;6.554;2022-10-31T15:40:24;12.37;;;6.80;;
72895;SDS011;61036;53.224;6.554;2022-10-31T15:42:51;11.30;;;6.63;;
72895;SDS011;61036;53.224;6.554;2022-10-31T15:45:22;15.80;;;7.30;;
72895;SDS011;61036;53.224;6.554;2022-10-31T15:50:28;19.87;;;9.53;;
72895;SDS011;61036;53.224;6.554;2022-10-31T15:52:57;17.13;;;9.10;;
72895;SDS011;61036;53.224;6.554;2022-10-31T15:55:25;14.97;;;8.83;;
72895;SDS011;61036;53.224;6.554;2022-10-31T15:58:13;12.90;;;9.00;;
72895;SDS011;61036;53.224;6.554;2022-10-31T16:00:41;15.67;;;10.83;;
72895;SDS011;61036;53.224;6.554;2022-10-31T16:03:21;18.13;;;10.07;;
72895;SDS011;61036;53.224;6.554;2022-10-31T16:05:51;16.50;;;10.50;;
72895;SDS011;61036;53.224;6.554;2022-10-31T16:10:56;19.63;;;11.20;;
72895;SDS011;61036;53.224;6.554;2022-10-31T16:13:31;17.63;;;11.60;;
72895;SDS011;61036;53.224;6.554;2022-10-31T16:16:00;20.67;;;12.50;;
72895;SDS011;61036;53.224;6.554;2022-10-31T16:18:28;19.57;;;11.60;;
72895;SDS011;61036;53.224;6.554;2022-10-31T16:20:59;16.80;;;10.40;;
72895;SDS011;61036;53.224;6.554;2022-10-31T16:23:25;16.77;;;10.33;;
72895;SDS011;61036;53.224;6.554;2022-10-31T16:25:55;18.13;;;9.87;;
72895;SDS011;61036;53.224;6.554;2022-10-31T16:28:25;15.60;;;9.20;;
72895;SDS011;61036;53.224;6.554;2022-10-31T16:30:53;16.83;;;10.07;;
72895;SDS011;61036;53.224;6.554;2022-10-31T16:33:35;18.57;;;10.80;;
72895;SDS011;61036;53.224;6.554;2022-10-31T16:38:52;16.83;;;10.33;;
72895;SDS011;61036;53.224;6.554;2022-10-31T16:41:23;15.23;;;9.03;;
72895;SDS011;61036;53.224;6.554;2022-10-31T16:43:50;15.43;;;8.57;;
72895;SDS011;61036;53.224;6.554;2022-10-31T16:46:23;16.93;;;8.30;;
72895;SDS011;61036;53.224;6.554;2022-10-31T16:48:51;13.97;;;7.50;;
72895;SDS011;61036;53.224;6.554;2022-10-31T16:51:17;15.37;;;7.80;;
72895;SDS011;61036;53.224;6.554;2022-10-31T16:53:44;13.63;;;8.00;;
72895;SDS011;61036;53.224;6.554;2022-10-31T16:56:14;11.43;;;7.20;;
72895;SDS011;61036;53.224;6.554;2022-10-31T16:58:42;13.83;;;8.33;;
72895;SDS011;61036;53.224;6.554;2022-10-31T17:01:09;13.10;;;8.10;;
72895;SDS011;61036;53.224;6.554;2022-10-31T17:03:37;13.63;;;8.83;;
72895;SDS011;61036;53.224;6.554;2022-10-31T17:06:05;13.40;;;8.00;;
72895;SDS011;61036;53.224;6.554;2022-10-31T17:08:31;13.90;;;8.80;;
72895;SDS011;61036;53.224;6.554;2022-10-31T17:10:58;17.00;;;9.70;;